Time;durP1;ratioP1;P1;durP2;ratioP2;P2;SDS_P1;SDS_P2;PMS_P1;PMS_P2;Temp;Humidity;BMP_temperature;BMP_pressure;BME280_temperature;BME280_humidity;BME280_pressure;Samples;Min_cycle;Max_cycle;Signal;HPM_P1;HPM_P2
2022/06/21 00:02:06;;;;;;;;;;;;;;;18.48;100.00;97930.31;5132949;28;19934;-62
2022/06/21 00:04:33;;;;;;;;;;;;;;;18.61;100.00;97937.81;5132271;27;20383;-62
2022/06/21 00:07:02;;;;;;;;;;;;;;;18.56;100.00;97923.31;5132477;28;19934;-61
2022/06/21 00:09:28;;;;;;;;;;;;;;;18.63;100.00;97913.19;5132647;28;20030;-61
2022/06/21 00:11:54;;;;;;;;;;;;;;;18.50;100.00;97904.91;5132352;28;19970;-62
2022/06/21 00:14:20;;;;;;;;;;;;;;;18.57;100.00;97888.75;5132496;28;20427;-61
2022/06/21 00:16:46;;;;;;;;;;;;;;;18.57;100.00;97899.09;5132262;28;19928;-61
2022/06/21 00:19:16;;;;;;;;;;;;;;;18.63;100.00;97918.75;5132476;28;19928;-62
2022/06/21 00:21:42;;;;;;;;;;;;;;;18.62;100.00;97940.13;5132206;28;20385;-61
2022/06/21 00:24:10;;;;;;;;;;;;;;;18.65;100.00;97928.16;5132652;28;20434;-61
2022/06/21 00:26:36;;;;;;;;;;;;;;;18.69;100.00;97916.91;5132170;28;19942;-62
2022/06/21 00:29:02;;;;;;;;;;;;;;;18.55;100.00;97907.09;5132569;28;20014;-62
2022/06/21 00:31:29;;;;;;;;;;;;;;;18.60;100.00;97895.41;5131965;28;19928;-62
2022/06/21 00:33:56;;;;;;;;;;;;;;;18.65;100.00;97896.84;5132182;28;19931;-60
2022/06/21 00:36:23;;;;;;;;;;;;;;;18.60;100.00;97892.66;5132184;28;20382;-60
2022/06/21 00:38:50;;;;;;;;;;;;;;;18.55;100.00;97891.19;5132045;28;19928;-59
2022/06/21 00:41:18;;;;;;;;;;;;;;;18.21;100.00;97897.53;5132003;28;19970;-60
2022/06/21 00:43:46;;;;;;;;;;;;;;;18.37;100.00;97873.63;5132100;28;20318;-60
2022/06/21 00:46:30;;;;;;;;;;;;;;;18.11;100.00;97874.47;5132020;28;19934;-60
2022/06/21 00:48:56;;;;;;;;;;;;;;;17.61;100.00;97842.00;5132062;28;20345;-60
2022/06/21 00:51:25;;;;;;;;;;;;;;;18.13;100.00;97826.09;5132116;28;20450;-59
2022/06/21 00:53:55;;;;;;;;;;;;;;;18.04;100.00;97816.47;5131734;28;19927;-62
2022/06/21 00:56:23;;;;;;;;;;;;;;;18.22;100.00;97821.41;5131748;28;19939;-62
2022/06/21 00:58:49;;;;;;;;;;;;;;;18.09;100.00;97815.09;5131903;28;19927;-62
2022/06/21 01:01:18;;;;;;;;;;;;;;;18.16;100.00;97822.41;5131746;28;19927;-62
2022/06/21 01:03:46;;;;;;;;;;;;;;;18.14;100.00;97827.66;5131776;28;20379;-62
2022/06/21 01:06:14;;;;;;;;;;;;;;;18.21;100.00;97828.19;5131463;28;19976;-62
2022/06/21 01:08:42;;;;;;;;;;;;;;;18.13;100.00;97835.19;5131841;28;19949;-62
2022/06/21 01:11:10;;;;;;;;;;;;;;;18.04;100.00;97833.09;5131799;28;20355;-62
2022/06/21 01:13:39;;;;;;;;;;;;;;;18.25;100.00;97823.28;5131570;28;19931;-62
2022/06/21 01:16:06;;;;;;;;;;;;;;;18.31;100.00;97806.84;5131148;27;19934;-60
2022/06/21 01:18:32;;;;;;;;;;;;;;;18.17;100.00;97799.03;5130786;28;19953;-62
2022/06/21 01:21:00;;;;;;;;;;;;;;;18.21;100.00;97791.34;5131352;28;19927;-62
2022/06/21 01:23:39;;;;;;;;;;;;;;;17.99;100.00;97777.44;5131493;28;19934;-59
2022/06/21 01:26:21;;;;;;;;;;;;;;;17.83;100.00;97743.13;5131605;28;19981;-62
2022/06/21 01:28:48;;;;;;;;;;;;;;;17.55;100.00;97724.63;5131150;28;19971;-62
2022/06/21 01:31:14;;;;;;;;;;;;;;;17.51;100.00;97699.03;5131422;28;20374;-62
2022/06/21 01:33:42;;;;;;;;;;;;;;;17.53;100.00;97674.44;5131135;28;19928;-62
2022/06/21 01:36:11;;;;;;;;;;;;;;;17.55;100.00;97664.44;5131241;28;20402;-62
2022/06/21 01:38:39;;;;;;;;;;;;;;;17.43;100.00;97645.88;5131288;28;19927;-62
2022/06/21 01:41:07;;;;;;;;;;;;;;;17.17;100.00;97636.84;5131647;28;19938;-62
2022/06/21 01:43:34;;;;;;;;;;;;;;;17.28;100.00;97625.41;5131069;28;20394;-60
2022/06/21 01:46:02;;;;;;;;;;;;;;;17.11;100.00;97620.03;5131130;28;19987;-60
2022/06/21 01:48:29;;;;;;;;;;;;;;;17.18;100.00;97611.47;5131283;28;19934;-60
2022/06/21 01:51:00;;;;;;;;;;;;;;;17.36;100.00;97608.13;5131295;28;19991;-60
2022/06/21 01:53:27;;;;;;;;;;;;;;;17.50;100.00;97606.06;5131214;28;19934;-61
2022/06/21 01:55:55;;;;;;;;;;;;;;;17.59;100.00;97608.91;5130835;28;19927;-60
2022/06/21 01:58:23;;;;;;;;;;;;;;;17.34;100.00;97618.84;5131134;28;20018;-62
2022/06/21 02:00:53;;;;;;;;;;;;;;;17.42;100.00;97606.31;5130943;28;20031;-63
2022/06/21 02:03:22;;;;;;;;;;;;;;;17.37;100.00;97601.34;5131098;28;19949;-60
2022/06/21 02:05:50;;;;;;;;;;;;;;;17.40;100.00;97591.38;5130806;28;19927;-60
2022/06/21 02:08:18;;;;;;;;;;;;;;;17.06;100.00;97594.88;5130746;28;19972;-60
2022/06/21 02:10:46;;;;;;;;;;;;;;;17.52;100.00;97592.53;5130627;28;19927;-60
2022/06/21 02:13:14;;;;;;;;;;;;;;;17.22;100.00;97589.19;5130812;28;19934;-61
2022/06/21 02:15:43;;;;;;;;;;;;;;;17.32;100.00;97579.75;5131007;28;19932;-60
2022/06/21 02:18:10;;;;;;;;;;;;;;;17.50;100.00;97581.16;5130750;28;20415;-60
2022/06/21 02:20:40;;;;;;;;;;;;;;;17.76;100.00;97584.53;5131131;28;20051;-60
2022/06/21 02:23:07;;;;;;;;;;;;;;;17.50;100.00;97598.53;5130874;28;19927;-60
2022/06/21 02:25:33;;;;;;;;;;;;;;;17.59;100.00;97601.38;5130926;28;20404;-60
2022/06/21 02:28:01;;;;;;;;;;;;;;;17.61;100.00;97600.94;5131619;27;19927;-61
2022/06/21 02:30:27;;;;;;;;;;;;;;;17.35;100.00;97594.69;5134419;28;20313;-60
2022/06/21 02:32:54;;;;;;;;;;;;;;;17.76;100.00;97598.41;5134197;28;20745;-60
2022/06/21 02:35:22;;;;;;;;;;;;;;;17.44;100.00;97599.56;5134331;28;20501;-61
2022/06/21 02:37:50;;;;;;;;;;;;;;;17.48;100.00;97589.13;5133886;28;19931;-60
2022/06/21 02:40:19;;;;;;;;;;;;;;;17.78;100.00;97588.44;5133882;28;19980;-60
2022/06/21 02:42:45;;;;;;;;;;;;;;;17.82;100.00;97591.09;5133840;28;19972;-60
2022/06/21 02:45:19;;;;;;;;;;;;;;;17.61;100.00;97592.59;5133977;28;20050;-61
2022/06/21 02:47:47;;;;;;;;;;;;;;;17.71;100.00;97590.69;5133957;28;19928;-60
2022/06/21 02:50:22;;;;;;;;;;;;;;;17.68;100.00;97586.81;5133789;28;19927;-60
2022/06/21 02:52:50;;;;;;;;;;;;;;;17.77;100.00;97586.91;5134239;28;19987;-60
2022/06/21 02:55:26;;;;;;;;;;;;;;;17.70;100.00;97586.38;5133936;28;20746;-60
2022/06/21 02:57:56;;;;;;;;;;;;;;;17.82;100.00;97580.78;5133438;28;19928;-60
2022/06/21 03:00:24;;;;;;;;;;;;;;;17.74;100.00;97582.25;5133688;28;20381;-61
2022/06/21 03:02:51;;;;;;;;;;;;;;;17.52;100.00;97565.59;5133519;28;20325;-60
2022/06/21 03:05:18;;;;;;;;;;;;;;;17.52;100.00;97548.97;5133828;28;20382;-60
2022/06/21 03:07:47;;;;;;;;;;;;;;;17.56;100.00;97546.06;5133395;28;19934;-60
2022/06/21 03:10:17;;;;;;;;;;;;;;;17.31;100.00;97544.19;5133514;28;19932;-60
2022/06/21 03:12:43;;;;;;;;;;;;;;;17.28;100.00;97534.78;5133466;28;20306;-60
2022/06/21 03:15:11;;;;;;;;;;;;;;;17.66;100.00;97517.22;5133765;28;19928;-60
2022/06/21 03:17:40;;;;;;;;;;;;;;;17.45;100.00;97510.44;5133236;28;20401;-60
2022/06/21 03:20:09;;;;;;;;;;;;;;;17.37;100.00;97506.41;5133701;28;19927;-60
2022/06/21 03:22:35;;;;;;;;;;;;;;;17.47;100.00;97501.69;5133510;28;20054;-60
2022/06/21 03:25:04;;;;;;;;;;;;;;;17.51;100.00;97491.25;5133409;28;20537;-60
2022/06/21 03:27:34;;;;;;;;;;;;;;;17.38;100.00;97480.25;5133337;28;20445;-60
2022/06/21 03:30:00;;;;;;;;;;;;;;;17.35;100.00;97489.44;5132992;28;20028;-60
2022/06/21 03:32:28;;;;;;;;;;;;;;;17.52;100.00;97476.94;5133347;28;20351;-60
2022/06/21 03:34:54;;;;;;;;;;;;;;;17.53;100.00;97486.81;5133028;28;19933;-60
2022/06/21 03:37:20;;;;;;;;;;;;;;;17.25;100.00;97491.38;5132920;28;20004;-59
2022/06/21 03:42:33;;;;;;;;;;;;;;;17.24;100.00;97472.47;5133655;28;19942;-60
2022/06/21 03:45:02;;;;;;;;;;;;;;;17.06;100.00;97468.34;5133087;28;20449;-60
2022/06/21 03:47:30;;;;;;;;;;;;;;;17.41;100.00;97457.94;5132897;28;19927;-60
2022/06/21 03:50:00;;;;;;;;;;;;;;;17.27;100.00;97461.25;5132942;28;20030;-61
2022/06/21 03:52:42;;;;;;;;;;;;;;;17.22;100.00;97456.28;5132866;28;19931;-61
2022/06/21 03:55:12;;;;;;;;;;;;;;;17.14;100.00;97453.00;5133276;28;20356;-61
2022/06/21 03:57:41;;;;;;;;;;;;;;;17.25;100.00;97460.16;5132657;28;19935;-61
2022/06/21 04:00:10;;;;;;;;;;;;;;;17.60;100.00;97467.16;5132645;28;19933;-61
2022/06/21 04:02:40;;;;;;;;;;;;;;;17.45;100.00;97463.34;5132643;28;19981;-61
2022/06/21 04:05:08;;;;;;;;;;;;;;;17.42;100.00;97456.72;5132560;28;19934;-61
2022/06/21 04:07:37;;;;;;;;;;;;;;;17.37;100.00;97462.84;5132402;28;19949;-61
2022/06/21 04:10:06;;;;;;;;;;;;;;;17.71;100.00;97460.44;5132451;28;19927;-61
2022/06/21 04:12:38;;;;;;;;;;;;;;;17.57;100.00;97459.75;5132748;28;20032;-61
2022/06/21 04:15:08;;;;;;;;;;;;;;;17.70;100.00;97464.44;5132802;28;19927;-61
2022/06/21 04:17:37;;;;;;;;;;;;;;;17.31;100.00;97441.72;5132128;28;19928;-61
2022/06/21 04:20:07;;;;;;;;;;;;;;;17.05;100.00;97436.31;5132337;28;19950;-60
2022/06/21 04:22:36;;;;;;;;;;;;;;;17.18;100.00;97425.19;5132420;28;19927;-61
2022/06/21 04:25:07;;;;;;;;;;;;;;;17.48;100.00;97431.97;5132360;28;19927;-61
2022/06/21 04:27:36;;;;;;;;;;;;;;;17.60;100.00;97438.69;5132156;28;19988;-61
2022/06/21 04:30:04;;;;;;;;;;;;;;;17.37;100.00;97431.63;5132183;28;19974;-61
2022/06/21 04:32:32;;;;;;;;;;;;;;;17.10;100.00;97432.97;5131947;28;19928;-61
2022/06/21 04:35:00;;;;;;;;;;;;;;;17.24;100.00;97425.38;5132155;28;20438;-61
2022/06/21 04:37:29;;;;;;;;;;;;;;;17.61;100.00;97410.50;5132042;28;19927;-60
2022/06/21 04:39:57;;;;;;;;;;;;;;;17.71;100.00;97422.41;5132212;28;20385;-60
2022/06/21 04:42:30;;;;;;;;;;;;;;;17.82;100.00;97420.00;5132039;28;20027;-60
2022/06/21 04:44:58;;;;;;;;;;;;;;;17.45;100.00;97426.56;5131962;28;20030;-60
2022/06/21 04:47:28;;;;;;;;;;;;;;;17.64;100.00;97422.69;5131942;28;19934;-60
2022/06/21 04:49:58;;;;;;;;;;;;;;;17.75;100.00;97425.03;5131752;28;19945;-60
2022/06/21 04:52:26;;;;;;;;;;;;;;;17.38;100.00;97420.06;5130698;27;19948;-63
2022/06/21 04:54:52;;;;;;;;;;;;;;;17.16;100.00;97411.78;5131887;28;20011;-60
2022/06/21 04:57:20;;;;;;;;;;;;;;;17.17;100.00;97402.25;5131625;28;19927;-60
2022/06/21 04:59:48;;;;;;;;;;;;;;;17.78;100.00;97394.44;5131655;28;19927;-60
2022/06/21 05:02:17;;;;;;;;;;;;;;;17.79;100.00;97409.06;5131534;28;19927;-60
2022/06/21 05:04:44;;;;;;;;;;;;;;;17.37;100.00;97395.59;5131850;28;19927;-61
2022/06/21 05:07:15;;;;;;;;;;;;;;;17.79;100.00;97397.97;5131760;28;19928;-60
2022/06/21 05:09:41;;;;;;;;;;;;;;;17.51;100.00;97413.69;5131872;28;20388;-61
2022/06/21 05:12:12;;;;;;;;;;;;;;;17.83;100.00;97409.72;5131854;28;19928;-60
2022/06/21 05:14:39;;;;;;;;;;;;;;;17.74;100.00;97409.63;5131562;28;19927;-60
2022/06/21 05:17:07;;;;;;;;;;;;;;;17.83;100.00;97415.25;5131560;28;19927;-60
2022/06/21 05:19:34;;;;;;;;;;;;;;;17.83;100.00;97416.03;5131306;28;19928;-60
2022/06/21 05:22:02;;;;;;;;;;;;;;;17.70;100.00;97414.56;5131354;28;19928;-60
2022/06/21 05:24:29;;;;;;;;;;;;;;;17.44;100.00;97405.66;5131255;28;19935;-60
2022/06/21 05:26:59;;;;;;;;;;;;;;;17.53;100.00;97386.31;5131434;28;19927;-60
2022/06/21 05:29:29;;;;;;;;;;;;;;;17.88;100.00;97386.94;5131245;28;20467;-61
2022/06/21 05:31:58;;;;;;;;;;;;;;;17.69;100.00;97383.28;5131314;28;19927;-62
2022/06/21 05:34:26;;;;;;;;;;;;;;;17.67;100.00;97380.19;5131443;28;19928;-63
2022/06/21 05:36:55;;;;;;;;;;;;;;;17.80;100.00;97380.13;5131083;28;19983;-63
2022/06/21 05:39:23;;;;;;;;;;;;;;;17.58;100.00;97374.63;5131414;28;20008;-61
2022/06/21 05:41:52;;;;;;;;;;;;;;;18.04;100.00;97372.03;5131117;28;19976;-61
2022/06/21 05:44:21;;;;;;;;;;;;;;;17.72;100.00;97382.38;5130735;28;19927;-61
2022/06/21 05:46:48;;;;;;;;;;;;;;;17.68;100.00;97381.75;5131252;28;19927;-61
2022/06/21 05:49:20;;;;;;;;;;;;;;;18.32;100.00;97378.41;5131117;28;19928;-61
2022/06/21 05:51:46;;;;;;;;;;;;;;;18.21;100.00;97395.50;5130845;28;20416;-61
2022/06/21 05:54:14;;;;;;;;;;;;;;;18.34;100.00;97400.91;5131108;28;19966;-61
2022/06/21 05:56:41;;;;;;;;;;;;;;;17.90;100.00;97414.19;5130738;28;20026;-61
2022/06/21 05:59:11;;;;;;;;;;;;;;;18.30;100.00;97409.38;5131006;28;19927;-61
2022/06/21 06:01:41;;;;;;;;;;;;;;;18.35;100.00;97413.53;5130670;28;19935;-61
2022/06/21 06:04:10;;;;;;;;;;;;;;;18.26;100.00;97414.31;5133283;27;19934;-61
2022/06/21 06:06:39;;;;;;;;;;;;;;;18.15;100.00;97408.41;5134750;28;20018;-61
2022/06/21 06:09:07;;;;;;;;;;;;;;;18.14;100.00;97395.78;5134393;28;19927;-61
2022/06/21 06:11:58;;;;;;;;;;;;;;;18.34;100.00;97390.59;5134365;28;19927;-61
2022/06/21 06:14:27;;;;;;;;;;;;;;;18.20;100.00;97387.63;5134412;28;19927;-61
2022/06/21 06:16:55;;;;;;;;;;;;;;;18.08;100.00;97372.66;5134424;28;19927;-61
2022/06/21 06:19:23;;;;;;;;;;;;;;;18.07;100.00;97365.56;5134520;28;19995;-61
2022/06/21 06:21:51;;;;;;;;;;;;;;;17.95;100.00;97364.47;5134150;28;19932;-61
2022/06/21 06:24:20;;;;;;;;;;;;;;;18.46;100.00;97363.94;5133961;28;19927;-61
2022/06/21 06:26:48;;;;;;;;;;;;;;;18.39;100.00;97364.22;5133950;28;20026;-61
2022/06/21 06:29:17;;;;;;;;;;;;;;;18.40;100.00;97378.88;5134345;28;19951;-61
2022/06/21 06:31:47;;;;;;;;;;;;;;;18.17;100.00;97377.47;5134132;28;20356;-61
2022/06/21 06:34:15;;;;;;;;;;;;;;;18.72;100.00;97372.75;5133974;28;19959;-61
2022/06/21 06:36:43;;;;;;;;;;;;;;;18.89;100.00;97366.88;5133697;28;19927;-61
2022/06/21 06:39:16;;;;;;;;;;;;;;;19.12;100.00;97369.00;5133922;28;19927;-60
2022/06/21 06:41:50;;;;;;;;;;;;;;;18.67;100.00;97392.78;5133852;28;19935;-61
2022/06/21 06:44:17;;;;;;;;;;;;;;;18.99;100.00;97387.84;5133828;28;20316;-61
2022/06/21 06:46:43;;;;;;;;;;;;;;;18.99;100.00;97404.50;5133927;28;19927;-61
2022/06/21 06:49:15;;;;;;;;;;;;;;;19.40;100.00;97413.41;5133880;28;20026;-61
2022/06/21 06:51:44;;;;;;;;;;;;;;;19.64;100.00;97422.63;5133573;28;20145;-61
2022/06/21 06:54:15;;;;;;;;;;;;;;;19.67;100.00;97441.16;5133552;28;19928;-61
2022/06/21 06:56:48;;;;;;;;;;;;;;;19.77;100.00;97450.22;5116446;28;19984;-61
2022/06/21 06:59:15;;;;;;;;;;;;;;;19.79;100.00;97456.06;5133757;28;20038;-61
2022/06/21 07:01:44;;;;;;;;;;;;;;;19.77;100.00;97461.34;5133751;28;19927;-62
2022/06/21 07:04:12;;;;;;;;;;;;;;;19.84;100.00;97465.81;5133543;28;19928;-61
2022/06/21 07:06:41;;;;;;;;;;;;;;;19.96;100.00;97457.28;5133317;28;19927;-61
2022/06/21 07:09:11;;;;;;;;;;;;;;;20.50;100.00;97471.38;5133570;28;19927;-61
2022/06/21 07:11:47;;;;;;;;;;;;;;;20.78;100.00;97490.72;5133377;28;20382;-61
2022/06/21 07:14:15;;;;;;;;;;;;;;;21.05;100.00;97523.97;5132595;27;20350;-62
2022/06/21 07:16:42;;;;;;;;;;;;;;;21.37;100.00;97557.81;5132994;28;20348;-61
2022/06/21 07:19:10;;;;;;;;;;;;;;;21.42;100.00;97595.41;5133016;28;19934;-61
2022/06/21 07:21:36;;;;;;;;;;;;;;;21.60;100.00;97603.66;5132953;28;20420;-64
2022/06/21 07:24:03;;;;;;;;;;;;;;;21.22;100.00;97660.09;5133294;28;19938;-61
2022/06/21 07:26:32;;;;;;;;;;;;;;;21.28;100.00;97672.13;5132782;28;19960;-60
2022/06/21 07:29:00;;;;;;;;;;;;;;;21.23;100.00;97665.19;5133235;28;20022;-60
2022/06/21 07:31:28;;;;;;;;;;;;;;;21.22;100.00;97660.84;5133419;28;20396;-59
2022/06/21 07:33:58;;;;;;;;;;;;;;;21.07;100.00;97646.84;5133028;28;20320;-62
2022/06/21 07:36:28;;;;;;;;;;;;;;;21.32;100.00;97608.59;5133266;28;19927;-67
2022/06/21 07:38:56;;;;;;;;;;;;;;;20.98;100.00;97610.69;5132838;28;19934;-60
2022/06/21 07:41:25;;;;;;;;;;;;;;;20.94;100.00;97575.91;5132811;28;19936;-61
2022/06/21 07:43:54;;;;;;;;;;;;;;;21.17;100.00;97580.69;5132775;28;20443;-56
2022/06/21 07:46:25;;;;;;;;;;;;;;;21.11;100.00;97593.75;5132741;28;19927;-59
2022/06/21 07:48:54;;;;;;;;;;;;;;;20.98;100.00;97595.97;5132689;28;19934;-62
2022/06/21 07:51:21;;;;;;;;;;;;;;;20.74;100.00;97554.19;5132638;28;19979;-62
2022/06/21 07:53:50;;;;;;;;;;;;;;;20.38;100.00;97558.66;5132840;28;19937;-61
2022/06/21 07:56:18;;;;;;;;;;;;;;;20.24;100.00;97537.06;5132811;28;19927;-60
2022/06/21 07:58:50;;;;;;;;;;;;;;;20.75;100.00;97519.53;5132904;28;20401;-60
2022/06/21 08:06:52;;;;;;;;;;;;;;;20.89;100.00;97522.38;5132298;28;20377;-61
2022/06/21 08:09:24;;;;;;;;;;;;;;;20.62;100.00;97536.44;5132348;28;20399;-59
2022/06/21 08:11:52;;;;;;;;;;;;;;;20.60;100.00;97541.75;5132264;28;20040;-59
2022/06/21 08:14:18;;;;;;;;;;;;;;;20.40;100.00;97531.91;5132451;28;19934;-56
2022/06/21 08:16:47;;;;;;;;;;;;;;;20.35;100.00;97551.25;5132166;28;20322;-52
2022/06/21 08:19:18;;;;;;;;;;;;;;;20.20;100.00;97573.41;5131977;28;19980;-53
2022/06/21 08:21:46;;;;;;;;;;;;;;;20.34;100.00;97566.41;5132523;28;19928;-61
2022/06/21 08:24:14;;;;;;;;;;;;;;;20.49;100.00;97578.38;5132061;28;19928;-61
2022/06/21 08:26:42;;;;;;;;;;;;;;;20.80;100.00;97585.72;5131769;27;19927;-55
2022/06/21 08:29:14;;;;;;;;;;;;;;;20.98;100.00;97598.78;5131623;28;20209;-52
2022/06/21 08:31:44;;;;;;;;;;;;;;;21.54;100.00;97608.34;5131897;28;20018;-56
2022/06/21 08:34:11;;;;;;;;;;;;;;;21.90;100.00;97653.91;5131818;28;20057;-53
2022/06/21 08:36:39;;;;;;;;;;;;;;;22.11;100.00;97665.97;5132089;28;20014;-51
2022/06/21 08:39:09;;;;;;;;;;;;;;;21.74;100.00;97706.09;5131782;28;19927;-56
2022/06/21 08:41:55;;;;;;;;;;;;;;;21.47;100.00;97715.41;5131839;28;20394;-55
2022/06/21 08:44:42;;;;;;;;;;;;;;;21.42;100.00;97712.50;5131851;28;20072;-52
2022/06/21 08:47:24;;;;;;;;;;;;;;;21.48;100.00;97708.59;5131718;28;20033;-55
2022/06/21 08:50:08;;;;;;;;;;;;;;;21.34;100.00;97742.72;5131961;28;19927;-54
2022/06/21 08:52:55;;;;;;;;;;;;;;;21.37;100.00;97748.16;5131899;28;19931;-54
2022/06/21 08:55:25;;;;;;;;;;;;;;;21.05;100.00;97771.16;5123154;28;19935;-56
2022/06/21 08:57:57;;;;;;;;;;;;;;;20.51;100.00;97758.91;5131761;28;19931;-55
2022/06/21 09:00:33;;;;;;;;;;;;;;;20.42;100.00;97760.41;5131603;28;19996;-58
2022/06/21 09:03:13;;;;;;;;;;;;;;;20.06;100.00;97741.75;5131548;28;19935;-55
2022/06/21 09:05:51;;;;;;;;;;;;;;;19.94;100.00;97720.41;5127568;28;20010;-61
2022/06/21 09:08:29;;;;;;;;;;;;;;;19.92;100.00;97734.00;5131497;28;19928;-56
2022/06/21 09:11:04;;;;;;;;;;;;;;;19.94;100.00;97737.09;5131440;28;20350;-61
2022/06/21 09:13:40;;;;;;;;;;;;;;;20.16;100.00;97751.66;5131233;28;20034;-61
2022/06/21 09:16:08;;;;;;;;;;;;;;;20.36;100.00;97756.75;5131688;28;19927;-61
2022/06/21 09:18:41;;;;;;;;;;;;;;;20.22;100.00;97755.31;5131284;28;19927;-58
2022/06/21 09:21:14;;;;;;;;;;;;;;;20.22;100.00;97746.97;5131409;28;19927;-57
2022/06/21 09:23:55;;;;;;;;;;;;;;;20.14;100.00;97754.09;5131518;28;20297;-57
2022/06/21 09:26:27;;;;;;;;;;;;;;;19.84;100.00;97768.91;5131160;28;19927;-53
2022/06/21 09:28:56;;;;;;;;;;;;;;;19.97;100.00;97761.22;5131189;28;20433;-55
2022/06/21 09:31:25;;;;;;;;;;;;;;;20.03;100.00;97755.81;5131186;28;19953;-56
2022/06/21 09:33:55;;;;;;;;;;;;;;;20.19;100.00;97795.25;5131184;28;20047;-57
2022/06/21 09:36:27;;;;;;;;;;;;;;;20.08;100.00;97817.16;5130981;28;19928;-57
2022/06/21 09:39:00;;;;;;;;;;;;;;;20.13;100.00;97819.34;5130245;27;20304;-57
2022/06/21 09:41:31;;;;;;;;;;;;;;;20.18;100.00;97824.28;5131019;28;20394;-58
2022/06/21 09:44:02;;;;;;;;;;;;;;;19.89;100.00;97832.25;5131018;28;19931;-60
2022/06/21 09:46:36;;;;;;;;;;;;;;;19.83;100.00;97831.34;5131156;28;20317;-62
2022/06/21 09:49:06;;;;;;;;;;;;;;;19.56;100.00;97827.22;5130916;28;20413;-62
2022/06/21 09:51:39;;;;;;;;;;;;;;;19.09;100.00;97827.44;5131192;28;19934;-55
2022/06/21 09:54:18;;;;;;;;;;;;;;;19.04;100.00;97824.03;5130828;28;20028;-54
2022/06/21 09:56:49;;;;;;;;;;;;;;;19.03;100.00;97830.06;5130866;28;20348;-55
2022/06/21 09:59:18;;;;;;;;;;;;;;;18.92;100.00;97808.22;5130815;28;19927;-55
2022/06/21 10:01:48;;;;;;;;;;;;;;;18.79;100.00;97811.09;5130577;28;19928;-54
2022/06/21 10:04:20;;;;;;;;;;;;;;;18.86;100.00;97817.59;5130761;28;19934;-54
2022/06/21 10:06:53;;;;;;;;;;;;;;;18.79;100.00;97830.53;5130873;28;20368;-50
2022/06/21 10:09:29;;;;;;;;;;;;;;;18.68;100.00;97824.53;5130766;28;19928;-53
2022/06/21 10:12:01;;;;;;;;;;;;;;;18.57;100.00;97824.94;5130458;28;19928;-55
2022/06/21 10:14:36;;;;;;;;;;;;;;;18.87;100.00;97816.38;5131001;28;19942;-53
2022/06/21 10:17:26;;;;;;;;;;;;;;;18.84;100.00;97801.38;5130347;28;19934;-53
2022/06/21 10:20:07;;;;;;;;;;;;;;;19.07;100.00;97821.59;5036182;28;20044;-56
2022/06/21 10:22:40;;;;;;;;;;;;;;;19.25;100.00;97839.09;5130485;28;19931;-54
2022/06/21 10:25:18;;;;;;;;;;;;;;;19.16;100.00;97847.41;5130562;28;20017;-55
2022/06/21 10:27:58;;;;;;;;;;;;;;;18.97;100.00;97854.06;5130741;28;19931;-54
2022/06/21 10:30:33;;;;;;;;;;;;;;;18.88;100.00;97845.69;5130499;28;19927;-54
2022/06/21 10:33:06;;;;;;;;;;;;;;;18.92;100.00;97858.19;5130313;28;19928;-56
2022/06/21 10:35:50;;;;;;;;;;;;;;;18.69;100.00;97858.63;5130413;28;19976;-55
2022/06/21 10:38:34;;;;;;;;;;;;;;;18.21;100.00;97874.56;5130018;28;20249;-55
2022/06/21 10:41:07;;;;;;;;;;;;;;;18.46;100.00;97877.28;5113266;28;20478;-52
2022/06/21 10:43:42;;;;;;;;;;;;;;;18.28;100.00;97891.72;5130186;28;19928;-53
2022/06/21 10:46:09;;;;;;;;;;;;;;;18.29;100.00;97884.19;5130270;28;19928;-55
2022/06/21 10:49:02;;;;;;;;;;;;;;;18.38;100.00;97892.59;5130261;27;19934;-53
2022/06/21 10:51:33;;;;;;;;;;;;;;;18.56;100.00;97895.56;5133703;28;19927;-52
2022/06/21 10:54:14;;;;;;;;;;;;;;;18.54;100.00;97902.78;5133934;28;19934;-53
2022/06/21 11:02:23;;;;;;;;;;;;;;;18.47;100.00;97853.06;5132436;28;19974;-54
2022/06/21 11:04:56;;;;;;;;;;;;;;;18.61;100.00;97810.91;5133404;28;20017;-55
2022/06/21 11:07:29;;;;;;;;;;;;;;;18.46;100.00;97827.31;5133578;28;20049;-54
2022/06/21 11:09:57;;;;;;;;;;;;;;;18.25;100.00;97812.19;5133277;28;19935;-52
2022/06/21 11:15:19;;;;;;;;;;;;;;;18.20;100.00;97848.81;5133265;28;19935;-55
2022/06/21 11:17:49;;;;;;;;;;;;;;;18.38;100.00;97889.81;5133456;28;19934;-55
2022/06/21 11:20:22;;;;;;;;;;;;;;;18.08;100.00;97857.94;5133254;28;19927;-56
2022/06/21 11:22:54;;;;;;;;;;;;;;;17.78;100.00;97893.34;5133026;28;20019;-53
2022/06/21 11:25:28;;;;;;;;;;;;;;;17.52;100.00;97873.16;5133426;28;20310;-54
2022/06/21 11:28:01;;;;;;;;;;;;;;;17.52;100.00;97898.06;5133228;28;20324;-56
2022/06/21 11:30:36;;;;;;;;;;;;;;;17.64;100.00;97907.63;5133209;28;19934;-55
2022/06/21 11:33:07;;;;;;;;;;;;;;;17.32;100.00;97873.34;5132993;28;20354;-60
2022/06/21 11:35:37;;;;;;;;;;;;;;;16.99;100.00;97878.28;5132936;28;19973;-57
2022/06/21 11:38:14;;;;;;;;;;;;;;;17.00;100.00;97904.75;5132932;28;19927;-55
2022/06/21 11:40:46;;;;;;;;;;;;;;;16.91;100.00;97916.47;5132844;28;19934;-56
2022/06/21 11:43:24;;;;;;;;;;;;;;;16.86;100.00;97905.13;5132753;28;19990;-56
2022/06/21 11:45:51;;;;;;;;;;;;;;;16.73;100.00;97909.81;5132913;28;20481;-57
2022/06/21 11:48:35;;;;;;;;;;;;;;;16.92;100.00;97915.22;5132994;28;20382;-54
2022/06/21 11:51:06;;;;;;;;;;;;;;;16.81;100.00;97840.03;5132231;28;19980;-56
2022/06/21 11:53:39;;;;;;;;;;;;;;;16.57;100.00;97886.53;5132773;28;19931;-54
2022/06/21 11:56:09;;;;;;;;;;;;;;;16.75;100.00;97858.38;5132644;28;20331;-55
2022/06/21 11:58:38;;;;;;;;;;;;;;;16.71;100.00;97863.22;5132391;28;19927;-50
2022/06/21 12:01:12;;;;;;;;;;;;;;;16.37;100.00;97858.22;5132133;27;20446;-53
2022/06/21 12:03:43;;;;;;;;;;;;;;;16.32;100.00;97862.28;5132725;28;19931;-54
2022/06/21 12:06:12;;;;;;;;;;;;;;;16.60;100.00;97851.69;5132953;28;19927;-56
2022/06/21 12:08:47;;;;;;;;;;;;;;;16.56;100.00;97867.59;5132617;28;20047;-54
2022/06/21 12:11:15;;;;;;;;;;;;;;;16.51;100.00;97862.59;5132757;28;20484;-55
2022/06/21 12:13:48;;;;;;;;;;;;;;;16.63;100.00;97914.44;5132175;28;19927;-55
2022/06/21 12:16:32;;;;;;;;;;;;;;;16.55;100.00;97919.38;5132329;28;19927;-55
2022/06/21 12:19:00;;;;;;;;;;;;;;;16.30;100.00;97953.22;5132344;28;20022;-55
2022/06/21 12:21:28;;;;;;;;;;;;;;;16.36;100.00;97943.19;5132279;28;19974;-52
2022/06/21 12:23:55;;;;;;;;;;;;;;;16.32;100.00;97930.66;5132307;28;19934;-55
2022/06/21 12:26:22;;;;;;;;;;;;;;;16.41;100.00;97870.72;5132179;28;20030;-55
2022/06/21 12:28:50;;;;;;;;;;;;;;;16.53;100.00;97849.88;5131990;28;19973;-58
2022/06/21 12:31:20;;;;;;;;;;;;;;;16.58;100.00;97887.31;5131996;28;19931;-56
2022/06/21 12:33:49;;;;;;;;;;;;;;;16.39;100.00;97889.78;5132532;28;20384;-55
2022/06/21 12:36:22;;;;;;;;;;;;;;;16.47;100.00;97929.09;5131961;28;19949;-56
2022/06/21 12:38:51;;;;;;;;;;;;;;;16.56;100.00;97945.03;5132100;28;20029;-54
2022/06/21 12:41:23;;;;;;;;;;;;;;;16.47;100.00;97926.31;5132188;28;19951;-53
2022/06/21 12:43:55;;;;;;;;;;;;;;;16.71;100.00;97941.47;5131863;28;19931;-56
2022/06/21 12:46:27;;;;;;;;;;;;;;;16.74;100.00;97933.53;5131957;28;20041;-56
2022/06/21 12:49:06;;;;;;;;;;;;;;;16.32;100.00;97891.91;5131728;28;19928;-55
2022/06/21 12:51:39;;;;;;;;;;;;;;;16.74;100.00;97833.91;5131936;28;19927;-54
2022/06/21 12:54:14;;;;;;;;;;;;;;;17.23;100.00;97781.06;5131698;28;19927;-57
2022/06/21 12:56:50;;;;;;;;;;;;;;;17.33;100.00;97708.72;5131611;28;19928;-57
2022/06/21 12:59:31;;;;;;;;;;;;;;;17.55;100.00;97552.84;5131472;28;19975;-51
2022/06/21 13:02:07;;;;;;;;;;;;;;;17.92;100.00;97318.25;5131534;28;19927;-55
2022/06/21 13:04:44;;;;;;;;;;;;;;;17.92;100.00;97345.97;5132006;28;20072;-54
2022/06/21 13:07:24;;;;;;;;;;;;;;;18.27;100.00;97290.25;5131306;28;20346;-52
2022/06/21 13:09:59;;;;;;;;;;;;;;;17.90;100.00;97223.69;5131792;28;19928;-57